createdAt,value
2019-02-20T00:01:19.499Z,8.00
2019-02-20T00:03:54.411Z,8.20
2019-02-20T00:06:29.159Z,8.00
2019-02-20T00:09:05.091Z,7.90
2019-02-20T00:11:40.416Z,7.80
2019-02-20T00:14:15.262Z,7.80
2019-02-20T00:16:50.002Z,7.90
2019-02-20T00:19:25.101Z,8.00
2019-02-20T00:21:59.820Z,8.10
2019-02-20T00:24:34.700Z,8.10
2019-02-20T00:27:09.427Z,8.10
2019-02-20T00:29:44.254Z,8.10
2019-02-20T00:32:20.012Z,8.20
2019-02-20T00:34:54.774Z,8.20
2019-02-20T00:37:29.516Z,8.20
2019-02-20T00:40:04.669Z,8.20
2019-02-20T00:42:39.527Z,8.20
2019-02-20T00:45:27.604Z,8.20
2019-02-20T00:48:09.495Z,8.10
2019-02-20T00:50:44.703Z,8.10
2019-02-20T00:53:34.274Z,8.10
2019-02-20T00:56:10.046Z,8.10
2019-02-20T00:58:44.981Z,8.10
2019-02-20T01:01:20.680Z,8.10
2019-02-20T01:03:55.423Z,8.00
2019-02-20T01:06:30.276Z,8.10
2019-02-20T01:09:06.838Z,8.00
2019-02-20T01:11:44.068Z,7.90
2019-02-20T01:14:20.857Z,8.00
2019-02-20T01:16:55.651Z,7.90
2019-02-20T01:19:30.476Z,7.90
2019-02-20T01:22:06.251Z,7.90
2019-02-20T01:24:41.083Z,7.80
2019-02-20T01:27:15.828Z,7.80
2019-02-20T01:29:50.630Z,7.80
2019-02-20T01:32:26.395Z,7.80
2019-02-20T01:35:01.130Z,7.80
2019-02-20T01:37:35.877Z,7.90
2019-02-20T01:40:10.775Z,7.90
2019-02-20T01:42:45.571Z,7.80
2019-02-20T01:45:20.320Z,7.90
2019-02-20T01:47:55.053Z,7.90
2019-02-20T01:50:29.786Z,7.90
2019-02-20T01:53:10.217Z,7.90
2019-02-20T01:55:41.158Z,7.90
2019-02-20T01:58:15.958Z,7.90
2019-02-20T02:00:50.713Z,7.90
2019-02-20T02:03:25.587Z,7.90
2019-02-20T02:06:00.331Z,7.90
2019-02-20T02:08:35.131Z,7.80
2019-02-20T02:11:09.947Z,7.70
2019-02-20T02:13:44.673Z,7.70
2019-02-20T02:16:20.440Z,7.40
2019-02-20T02:18:55.169Z,7.00
2019-02-20T02:21:29.926Z,7.00
2019-02-20T02:24:05.002Z,7.00
2019-02-20T02:26:39.884Z,6.90
2019-02-20T02:29:14.647Z,6.80
2019-02-20T02:31:49.528Z,6.80
2019-02-20T02:34:24.267Z,6.90
2019-02-20T02:36:59.083Z,6.80
2019-02-20T02:39:34.002Z,6.60
2019-02-20T02:42:08.727Z,6.60
2019-02-20T02:44:43.470Z,6.60
2019-02-20T02:47:19.211Z,6.70
2019-02-20T02:49:53.967Z,6.70
2019-02-20T02:52:28.765Z,6.80
2019-02-20T02:55:03.630Z,6.90
2019-02-20T02:57:38.359Z,6.70
2019-02-20T03:00:13.244Z,6.60
2019-02-20T03:02:47.994Z,6.60
2019-02-20T03:05:22.954Z,6.70
2019-02-20T03:07:57.683Z,6.60
2019-02-20T03:10:32.454Z,6.60
2019-02-20T03:13:07.286Z,6.60
2019-02-20T03:15:42.133Z,6.60
2019-02-20T03:18:16.872Z,6.70
2019-02-20T03:20:51.694Z,6.50
2019-02-20T03:23:26.423Z,6.60
2019-02-20T03:26:01.248Z,6.60
2019-02-20T03:28:35.971Z,6.50
2019-02-20T03:31:10.787Z,6.50
2019-02-20T03:33:45.516Z,6.60
2019-02-20T03:36:21.379Z,6.60
2019-02-20T03:38:56.119Z,6.50
2019-02-20T03:41:30.932Z,6.50
2019-02-20T03:44:05.672Z,6.50
2019-02-20T03:46:40.519Z,6.60
2019-02-20T03:49:15.357Z,6.20
2019-02-20T03:51:50.163Z,5.80
2019-02-20T03:54:24.963Z,5.90
2019-02-20T03:56:59.871Z,6.00
2019-02-20T03:59:35.648Z,6.20
2019-02-20T04:02:10.504Z,6.20
2019-02-20T04:04:45.236Z,6.30
2019-02-20T04:07:20.120Z,6.20
2019-02-20T04:09:54.872Z,6.20
2019-02-20T04:12:29.634Z,6.20
2019-02-20T04:15:06.478Z,6.20
2019-02-20T04:17:41.229Z,6.20
2019-02-20T04:20:15.961Z,6.30
2019-02-20T04:22:50.703Z,6.30
2019-02-20T04:25:25.456Z,6.40
2019-02-20T04:28:00.197Z,6.30
2019-02-20T04:30:34.960Z,6.30
2019-02-20T04:33:09.693Z,6.30
2019-02-20T04:35:44.436Z,6.30
2019-02-20T04:38:19.236Z,6.40
2019-02-20T04:40:54.059Z,6.40
2019-02-20T04:43:29.014Z,6.40
2019-02-20T04:46:03.847Z,6.40
2019-02-20T04:48:38.572Z,6.40
2019-02-20T04:51:13.335Z,6.40
2019-02-20T04:53:48.419Z,6.40
2019-02-20T04:56:23.423Z,6.40
2019-02-20T04:59:01.194Z,6.40
2019-02-20T05:01:36.247Z,6.40
2019-02-20T05:04:11.147Z,5.80
2019-02-20T05:06:45.955Z,5.60
2019-02-20T05:09:20.855Z,5.50
2019-02-20T05:11:55.630Z,5.80
2019-02-20T05:14:30.396Z,6.00
2019-02-20T05:17:05.203Z,6.10
2019-02-20T05:19:40.019Z,6.20
2019-02-20T05:22:14.844Z,6.20
2019-02-20T05:24:49.776Z,6.20
2019-02-20T05:27:24.520Z,6.00
2019-02-20T05:29:59.357Z,6.20
2019-02-20T05:32:34.088Z,6.20
2019-02-20T05:35:09.872Z,6.20
2019-02-20T05:37:44.762Z,6.10
2019-02-20T05:40:19.560Z,6.00
2019-02-20T05:42:54.312Z,6.10
2019-02-20T05:45:29.058Z,6.10
2019-02-20T05:48:03.804Z,6.00
2019-02-20T05:50:38.601Z,6.10
2019-02-20T05:53:13.348Z,6.10
2019-02-20T05:55:48.152Z,6.00
2019-02-20T05:58:23.092Z,6.00
2019-02-20T06:00:57.910Z,6.00
2019-02-20T06:03:32.651Z,6.00
2019-02-20T06:06:07.402Z,6.00
2019-02-20T06:08:42.231Z,6.10
2019-02-20T06:11:17.053Z,5.90
2019-02-20T06:13:51.860Z,5.30
2019-02-20T06:16:26.871Z,5.50
2019-02-20T06:19:01.692Z,5.60
2019-02-20T06:21:36.444Z,5.80
2019-02-20T06:24:11.268Z,5.70
2019-02-20T06:26:46.103Z,5.90
2019-02-20T06:29:21.130Z,5.90
2019-02-20T06:31:55.971Z,5.90
2019-02-20T06:34:30.783Z,6.00
2019-02-20T06:37:05.571Z,6.00
2019-02-20T06:39:41.377Z,5.80
2019-02-20T06:42:16.112Z,5.70
2019-02-20T06:44:50.858Z,5.80
2019-02-20T06:47:26.627Z,5.80
2019-02-20T06:50:01.798Z,5.80
2019-02-20T06:52:37.700Z,5.80
2019-02-20T06:55:12.724Z,5.90
2019-02-20T06:57:47.472Z,5.90
2019-02-20T07:00:22.399Z,6.00
2019-02-20T07:02:57.146Z,6.00
2019-02-20T07:05:47.605Z,6.00
2019-02-20T07:09:06.603Z,6.10
2019-02-20T07:12:01.424Z,6.20
2019-02-20T07:14:57.181Z,6.10
2019-02-20T07:18:22.143Z,6.10
2019-02-20T07:21:23.579Z,6.10
2019-02-20T07:24:23.143Z,6.20
2019-02-20T07:27:22.424Z,5.80
2019-02-20T07:30:02.253Z,5.70
2019-02-20T07:32:37.234Z,5.30
2019-02-20T07:35:12.396Z,5.40
2019-02-20T07:37:47.124Z,5.50
2019-02-20T07:40:21.867Z,5.60
2019-02-20T07:42:57.711Z,5.60
2019-02-20T07:45:32.561Z,5.60
2019-02-20T07:48:07.362Z,5.40
2019-02-20T07:50:42.098Z,5.30
2019-02-20T07:53:16.843Z,5.40
2019-02-20T07:55:51.739Z,5.30
2019-02-20T07:58:26.592Z,5.20
2019-02-20T08:01:01.341Z,5.50
2019-02-20T08:03:36.220Z,5.50
2019-02-20T08:06:11.118Z,5.50
2019-02-20T08:08:47.075Z,5.70
2019-02-20T08:11:21.917Z,5.60
2019-02-20T08:13:56.653Z,5.70
2019-02-20T08:16:31.473Z,5.70
2019-02-20T08:19:06.300Z,5.70
2019-02-20T08:21:41.123Z,5.90
2019-02-20T08:24:15.851Z,6.00
2019-02-20T08:26:50.699Z,6.00
2019-02-20T08:29:25.610Z,6.00
2019-02-20T08:32:00.423Z,6.20
2019-02-20T08:34:35.173Z,6.10
2019-02-20T08:37:10.066Z,6.10
2019-02-20T08:39:44.790Z,6.10
2019-02-20T08:42:20.728Z,6.10
2019-02-20T08:44:55.463Z,6.20
2019-02-20T08:47:30.294Z,6.30
2019-02-20T08:50:06.486Z,6.30
2019-02-20T08:52:41.287Z,6.20
2019-02-20T08:55:16.091Z,6.40
2019-02-20T08:57:50.916Z,6.40
2019-02-20T09:00:25.787Z,6.30
2019-02-20T09:03:00.552Z,6.40
2019-02-20T09:05:35.379Z,6.50
2019-02-20T09:08:10.196Z,6.50
2019-02-20T09:10:45.023Z,6.70
2019-02-20T09:13:20.856Z,6.70
2019-02-20T09:15:55.762Z,6.90
2019-02-20T09:18:30.507Z,7.00
2019-02-20T09:21:05.343Z,7.00
2019-02-20T09:23:41.892Z,7.00
2019-02-20T09:26:16.701Z,7.10
2019-02-20T09:28:52.407Z,7.10
2019-02-20T09:31:27.246Z,7.30
2019-02-20T09:34:02.043Z,7.50
2019-02-20T09:36:36.803Z,7.60
2019-02-20T09:39:37.419Z,7.50
2019-02-20T09:42:14.247Z,7.70
2019-02-20T09:44:49.871Z,7.90
2019-02-20T09:47:24.691Z,7.90
2019-02-20T09:49:59.419Z,7.80
2019-02-20T09:52:34.248Z,7.90
2019-02-20T09:55:10.195Z,7.90
2019-02-20T09:57:44.939Z,7.90
2019-02-20T10:00:19.919Z,8.00
2019-02-20T10:02:54.823Z,8.10
2019-02-20T10:05:29.563Z,8.20
2019-02-20T10:08:04.625Z,8.40
2019-02-20T10:10:39.478Z,8.40
2019-02-20T10:13:14.287Z,8.60
2019-02-20T10:15:49.117Z,8.80
2019-02-20T10:18:24.883Z,9.00
2019-02-20T10:20:59.698Z,8.90
2019-02-20T10:23:34.517Z,8.90
2019-02-20T10:26:09.284Z,8.90
2019-02-20T10:28:44.018Z,9.10
2019-02-20T10:31:18.765Z,9.30
2019-02-20T10:33:53.512Z,9.40
2019-02-20T10:36:28.319Z,9.40
2019-02-20T10:39:03.826Z,9.60
2019-02-20T10:41:40.513Z,9.50
2019-02-20T10:44:15.391Z,9.60
2019-02-20T10:46:50.207Z,9.70
2019-02-20T10:49:25.027Z,9.80
2019-02-20T10:51:59.911Z,9.80
2019-02-20T10:54:34.651Z,9.80
2019-02-20T10:57:09.541Z,9.90
2019-02-20T10:59:44.291Z,10.10
2019-02-20T11:02:19.095Z,10.10
2019-02-20T11:04:53.855Z,10.10
2019-02-20T11:07:28.615Z,10.30
2019-02-20T11:10:03.833Z,10.30
2019-02-20T11:12:38.744Z,10.40
2019-02-20T11:15:13.667Z,10.50
2019-02-20T11:17:48.551Z,10.70
2019-02-20T11:20:23.304Z,10.80
2019-02-20T11:22:58.124Z,10.80
2019-02-20T11:25:32.933Z,11.00
2019-02-20T11:28:07.835Z,11.10
2019-02-20T11:30:42.574Z,11.10
2019-02-20T11:33:17.407Z,11.10
2019-02-20T11:35:52.250Z,11.10
2019-02-20T11:38:27.091Z,11.20
2019-02-20T11:41:21.029Z,11.30
2019-02-20T11:43:55.850Z,11.50
2019-02-20T11:46:30.757Z,11.60
2019-02-20T11:49:05.659Z,11.80
2019-02-20T11:51:40.403Z,11.80
2019-02-20T11:54:15.163Z,11.90
2019-02-20T11:56:50.981Z,12.00
2019-02-20T11:59:25.732Z,11.70
2019-02-20T12:02:00.539Z,11.80
2019-02-20T12:04:35.369Z,11.80
2019-02-20T12:07:10.255Z,11.80
2019-02-20T12:09:45.426Z,11.90
2019-02-20T12:12:20.392Z,12.20
2019-02-20T12:14:55.225Z,12.20
2019-02-20T12:17:29.947Z,12.10
2019-02-20T12:20:06.547Z,12.10
2019-02-20T12:22:41.463Z,12.10
2019-02-20T12:25:16.283Z,12.10
2019-02-20T12:27:51.018Z,12.00
2019-02-20T12:30:25.927Z,12.10
2019-02-20T12:33:00.899Z,12.30
2019-02-20T12:35:35.704Z,12.30
2019-02-20T12:38:10.513Z,12.40
2019-02-20T12:40:45.343Z,12.70
2019-02-20T12:43:21.130Z,12.60
2019-02-20T12:45:55.985Z,12.40
2019-02-20T12:48:30.828Z,12.40
2019-02-20T12:51:06.888Z,12.40
2019-02-20T12:53:43.606Z,12.50
2019-02-20T12:56:30.259Z,12.50
2019-02-20T12:59:07.761Z,12.70
2019-02-20T13:01:41.696Z,12.80
2019-02-20T13:04:16.533Z,12.90
2019-02-20T13:06:59.266Z,12.90
2019-02-20T13:09:28.236Z,12.80
2019-02-20T13:12:03.067Z,12.80
2019-02-20T13:14:37.902Z,12.80
2019-02-20T13:17:12.812Z,13.00
2019-02-20T13:19:47.646Z,13.00
2019-02-20T13:22:22.459Z,12.90
2019-02-20T13:24:57.359Z,13.10
2019-02-20T13:27:32.240Z,13.00
2019-02-20T13:30:07.431Z,13.20
2019-02-20T13:32:42.261Z,13.30
2019-02-20T13:35:18.665Z,13.30
2019-02-20T13:37:54.820Z,13.30
2019-02-20T13:40:29.640Z,13.40
2019-02-20T13:43:04.547Z,13.40
2019-02-20T13:45:39.365Z,13.50
2019-02-20T13:48:14.451Z,13.50
2019-02-20T13:50:49.358Z,13.50
2019-02-20T13:53:26.803Z,13.50
2019-02-20T13:56:01.626Z,13.50
2019-02-20T13:58:36.647Z,13.60
2019-02-20T14:01:11.643Z,13.60
2019-02-20T14:03:46.396Z,13.60
2019-02-20T14:06:21.383Z,13.50
2019-02-20T14:08:56.415Z,13.50
2019-02-20T14:11:31.318Z,13.60
2019-02-20T14:14:06.128Z,13.60
2019-02-20T14:16:40.964Z,13.70
2019-02-20T14:19:16.175Z,13.80
2019-02-20T14:21:51.040Z,13.80
2019-02-20T14:24:25.923Z,13.80
2019-02-20T14:27:10.223Z,13.70
2019-02-20T14:29:38.083Z,13.70
2019-02-20T14:32:12.924Z,13.70
2019-02-20T14:34:47.664Z,13.50
2019-02-20T14:37:22.559Z,13.70
2019-02-20T14:39:57.343Z,13.60
2019-02-20T14:42:32.082Z,13.70
2019-02-20T14:45:07.635Z,13.60
2019-02-20T14:47:42.513Z,13.70
2019-02-20T14:50:18.327Z,13.80
2019-02-20T14:52:53.067Z,13.90
2019-02-20T14:55:27.967Z,13.70
2019-02-20T14:58:02.750Z,13.70
2019-02-20T15:00:38.516Z,13.60
2019-02-20T15:03:14.231Z,13.60
2019-02-20T15:05:49.880Z,13.60
2019-02-20T15:08:25.303Z,13.50
2019-02-20T15:11:00.279Z,13.40
2019-02-20T15:13:35.023Z,13.40
2019-02-20T15:16:09.968Z,13.40
2019-02-20T15:18:45.043Z,13.40
2019-02-20T15:21:21.063Z,13.30
2019-02-20T15:23:55.804Z,13.30
2019-02-20T15:26:30.745Z,13.40
2019-02-20T15:29:05.703Z,13.30
2019-02-20T15:31:40.487Z,13.20
2019-02-20T15:34:15.431Z,13.20
2019-02-20T15:36:50.242Z,13.30
2019-02-20T15:39:25.059Z,13.40
2019-02-20T15:41:59.956Z,13.30
2019-02-20T15:44:35.165Z,13.40
2019-02-20T15:47:10.071Z,13.40
2019-02-20T15:49:45.106Z,13.50
2019-02-20T15:52:19.862Z,13.50
2019-02-20T15:54:56.112Z,13.50
2019-02-20T15:57:37.807Z,13.50
2019-02-20T16:00:09.239Z,13.50
2019-02-20T16:02:44.832Z,13.50
2019-02-20T16:05:20.368Z,13.50
2019-02-20T16:07:57.350Z,13.60
2019-02-20T16:10:41.146Z,13.60
2019-02-20T16:13:15.896Z,13.50
2019-02-20T16:15:50.925Z,13.40
2019-02-20T16:18:25.847Z,13.40
2019-02-20T16:21:00.749Z,13.40
2019-02-20T16:23:35.482Z,13.50
2019-02-20T16:26:10.314Z,13.50
2019-02-20T16:28:45.052Z,13.50
2019-02-20T16:31:19.994Z,13.60
2019-02-20T16:33:54.880Z,13.60
2019-02-20T16:36:29.954Z,13.50
2019-02-20T16:39:05.430Z,13.30
2019-02-20T16:41:43.470Z,13.40
2019-02-20T16:44:18.015Z,13.40
2019-02-20T16:46:53.266Z,13.50
2019-02-20T16:49:28.077Z,13.50
2019-02-20T16:52:03.553Z,13.50
2019-02-20T16:54:38.295Z,13.80
2019-02-20T16:57:15.487Z,14.10
2019-02-20T16:59:50.892Z,13.90
2019-02-20T17:02:29.077Z,13.80
2019-02-20T17:05:04.039Z,13.70
2019-02-20T17:07:39.237Z,13.60
2019-02-20T17:10:15.152Z,13.60
2019-02-20T17:12:50.074Z,13.50
2019-02-20T17:15:24.955Z,13.50
2019-02-20T17:17:59.786Z,13.40
2019-02-20T17:20:35.797Z,13.30
2019-02-20T17:23:10.796Z,13.30
2019-02-20T17:25:47.875Z,13.20
2019-02-20T17:28:38.616Z,13.20
2019-02-20T17:31:16.651Z,13.10
2019-02-20T17:33:51.626Z,13.00
2019-02-20T17:36:26.520Z,12.90
2019-02-20T17:39:01.385Z,12.90
2019-02-20T17:41:38.075Z,12.90
2019-02-20T17:44:13.050Z,12.90
2019-02-20T17:46:47.864Z,12.80
2019-02-20T17:49:22.727Z,12.80
2019-02-20T17:51:57.695Z,12.60
2019-02-20T17:54:32.651Z,12.50
2019-02-20T17:57:13.258Z,12.40
2019-02-20T17:59:48.189Z,12.50
2019-02-20T18:02:23.053Z,12.40
2019-02-20T18:04:57.999Z,12.40
2019-02-20T18:07:33.008Z,12.40
2019-02-20T18:10:07.985Z,12.40
2019-02-20T18:12:42.834Z,12.40
2019-02-20T18:15:17.780Z,12.30
2019-02-20T18:17:52.675Z,12.30
2019-02-20T18:20:27.457Z,12.30
2019-02-20T18:23:02.315Z,12.30
2019-02-20T18:25:37.188Z,12.20
2019-02-20T18:28:12.167Z,12.20
2019-02-20T18:30:47.095Z,12.20
2019-02-20T18:33:22.036Z,12.10
2019-02-20T18:35:56.956Z,12.10
2019-02-20T18:38:37.708Z,12.10
2019-02-20T18:41:14.524Z,12.10
2019-02-20T18:43:49.276Z,12.00
2019-02-20T18:46:24.579Z,12.30
2019-02-20T18:49:00.828Z,12.20
2019-02-20T18:51:35.639Z,12.10
2019-02-20T18:54:10.494Z,12.00
2019-02-20T18:56:45.260Z,12.00
2019-02-20T18:59:20.043Z,12.00
2019-02-20T19:01:54.959Z,11.90
2019-02-20T19:04:29.899Z,11.90
2019-02-20T19:07:10.335Z,11.80
2019-02-20T19:09:48.137Z,11.80
2019-02-20T19:12:39.916Z,11.80
2019-02-20T19:15:57.570Z,11.70
2019-02-20T19:19:02.357Z,11.70
2019-02-20T19:22:07.512Z,11.70
2019-02-20T19:25:12.073Z,11.60
2019-02-20T19:28:15.788Z,11.60
2019-02-20T19:31:35.596Z,11.60
2019-02-20T19:34:40.547Z,11.50
2019-02-20T19:37:35.408Z,11.40
2019-02-20T19:40:37.137Z,11.40
2019-02-20T19:43:28.745Z,11.30
2019-02-20T19:46:40.192Z,11.30
2019-02-20T19:49:31.481Z,11.20
2019-02-20T19:52:50.682Z,11.20
2019-02-20T19:56:23.202Z,11.20
2019-02-20T19:59:39.571Z,11.20
2019-02-20T20:03:05.038Z,11.10
2019-02-20T20:05:58.162Z,11.00
2019-02-20T20:09:00.585Z,11.00
2019-02-20T20:12:19.949Z,11.00
2019-02-20T20:15:16.655Z,10.90
2019-02-20T20:18:19.239Z,10.90
2019-02-20T20:21:07.767Z,10.90
2019-02-20T20:24:36.096Z,10.90
2019-02-20T20:27:37.070Z,10.90
2019-02-20T20:30:49.717Z,10.80
2019-02-20T20:34:00.909Z,10.80
2019-02-20T20:36:59.265Z,10.80
2019-02-20T20:39:56.059Z,10.70
2019-02-20T20:43:07.735Z,10.70
2019-02-20T20:45:51.006Z,10.70
2019-02-20T20:49:13.583Z,10.70
2019-02-20T20:52:13.660Z,10.70
2019-02-20T20:55:32.690Z,10.70
2019-02-20T20:59:17.228Z,10.70
2019-02-20T21:02:16.102Z,10.60
2019-02-20T21:05:31.379Z,10.60
2019-02-20T21:08:35.448Z,10.60
2019-02-20T21:12:00.450Z,10.60
2019-02-20T21:15:02.680Z,10.60
2019-02-20T21:18:00.021Z,10.60
2019-02-20T21:21:00.124Z,10.60
2019-02-20T21:24:14.673Z,10.60
2019-02-20T21:27:36.608Z,10.60
2019-02-20T21:30:36.561Z,10.60
2019-02-20T21:33:46.486Z,10.60
2019-02-20T21:36:45.264Z,10.50
2019-02-20T21:39:29.435Z,10.40
2019-02-20T21:42:32.379Z,10.00
2019-02-20T21:45:38.969Z,9.90
2019-02-20T21:48:58.091Z,10.10
2019-02-20T21:51:43.055Z,10.20
2019-02-20T21:54:51.943Z,10.40
2019-02-20T21:57:52.878Z,10.40
2019-02-20T22:01:01.873Z,10.40
2019-02-20T22:04:03.626Z,10.40
2019-02-20T22:07:33.748Z,10.40
2019-02-20T22:10:27.607Z,10.40
2019-02-20T22:13:30.658Z,10.50
2019-02-20T22:16:46.174Z,10.40
2019-02-20T22:19:59.384Z,10.40
2019-02-20T22:23:21.854Z,10.40
2019-02-20T22:26:25.195Z,10.30
2019-02-20T22:29:50.245Z,10.40
2019-02-20T22:33:08.219Z,10.30
2019-02-20T22:36:27.575Z,10.30
2019-02-20T22:39:17.538Z,10.40
2019-02-20T22:42:32.046Z,10.40
2019-02-20T22:45:53.917Z,10.40
2019-02-20T22:49:08.799Z,10.30
2019-02-20T22:52:16.250Z,10.10
2019-02-20T22:55:28.319Z,10.10
2019-02-20T22:58:33.703Z,10.10
2019-02-20T23:01:33.769Z,10.00
2019-02-20T23:05:02.887Z,10.10
2019-02-20T23:08:02.267Z,10.20
2019-02-20T23:11:18.230Z,10.20
2019-02-20T23:14:14.187Z,10.10
2019-02-20T23:16:51.195Z,9.90
2019-02-20T23:19:25.942Z,9.70
2019-02-20T23:22:00.837Z,9.80
2019-02-20T23:24:35.655Z,10.00
2019-02-20T23:27:10.479Z,9.90
2019-02-20T23:29:45.383Z,9.80
2019-02-20T23:32:20.279Z,9.70
2019-02-20T23:34:55.021Z,9.70
2019-02-20T23:37:29.831Z,9.80
2019-02-20T23:40:05.148Z,9.70
2019-02-20T23:42:39.875Z,9.80
2019-02-20T23:45:14.788Z,9.90
2019-02-20T23:47:49.607Z,9.70
2019-02-20T23:50:24.423Z,9.60
2019-02-20T23:52:59.444Z,9.50
2019-02-20T23:55:34.199Z,9.40
2019-02-20T23:58:09.025Z,9.30
